Record high temperature 35.7°C Record low temperature -3.9°C Record high gust 48.1 km/h Record high average 30.2 km/h Record daily rain 20.2 mm Record low windchill -5.3°C Record high barometer 1037.0 hPa Record low barometer 986.8 hPa
Daily high pressure 1021.1 hPa Daily low pressure 1020.6 hPa Daily low windchill 5.9°C Daily high heat index 8.2°C Daily high gust speed 11.6 kmh SO Daily high average speed 6.5 kmh SO
Wetterdaten
LETZTE AKTUALISIERUNG UM: 02:15 DATUM: 01 November 2020, time of next update: 02:30
Aktuelles WetterClear/Night Aktuelle Temperatur 8.2°C (46.8°F), Apparent temp 7.0°C
Höchsttemperatur (seit Mitternacht)8.2°C um: 02:14 Tiefsttemperatur (seit Mitternacht)7.7°C um: 00:25
Windgeschwindigkeit (10 Minuten )4.1 kmh (2.2 kts) Windrichtung (Dir) (10 Minuten )ESE (110°)
Windchill Temperatur 7.8°C Windspitzen (letzte Std)11.6 kmh (6.3 kts) um: 01:30
Windspitzen (seit Mitternacht)11.6 kmh (6.3 kts) um: 01:30 Höchstes Windmittel / Minute (seit Mitternacht)6.5 kmh (3.5 kts) um: 01:33
Regenmenge (letzte Std)0.0 mm Regenmenge (seit Mitternacht)0.0 mm (0.00 in.)---
Regenmenge diesen Monat 0.0 mm (0.00 in.) Regenmenge seit Jahresbeginn 376.2 mm (14.81 in.)
Höchste Regenmenge pro Minute (letzte Std)0.0 mm/min Höchste Regenmenge pro Stunde (letzte 6 Std)0.0 mm/stunde
Regenmenge Gestern 0.0 mm Taupunkt 6.5°C (Wet Bulb :7.4°C )
Luftfeuchtigkeit 89 %, Humidex 8.1°C Aktueller Luftdruck (auf Meereshöhe bezogen)1020.6 hPa
Luftdrucktendenz -0.5 hPa (letzte Std) Trend (letzte 1 Std)gleichbleibend
Luftdrucktendenz (letzte 12 Std)+0.2 hPa Luftdrucktendenz (letzte 6 Std)+0.2 hPa
Maximum Soil temperature (seit Mitternacht) 12.2°C Minimum Soil temperature(seit Mitternacht)11.7°C
Current Soil temperature 12°C
Current Solar 0 W/m²
Maximum solar (seit Mitternacht) 0 W/m² Minimum solar(seit Mitternacht)0 W/m²
Current 00:00 hours of sunshine today, current sky: Nicht bestimmbar (Nachtzeit)/Dry/Clear
Sunshine hours for the year: 1431:26 hrs Sunshine hours for the month: 237:39 hrs
Current evapotranspiration rate 0.2 mm per day. Yesterday's reading 1.3

Diese Seite wurde mit aktuellen Daten einer DAVIS VP Wetterstation erstellt. Drücken Sie bitte auf "Aktualisieren" oder "neu laden" um die neuesten Daten zu erhalten.


Letztes animiertes Webcam-Bild


Weather report/warning/Metars

Stuttgart-Echterdingen, Germany (EDDS) 48-41N 009-13E 391M
Oct 31, 2020 - 08:50 PM EDT / 2020.11.01 0050 UTC
Wind: Variable at 2 MPH (2 KT):0
Visibility: greater than 7 mile(s):0
Temperature: 48 F (9 C)
Dew Point: 44 F (7 C)
Relative Humidity: 87%
Pressure (altimeter): 30.12 in. Hg (1020 hPa)
ob: EDDS 010050Z VRB02KT CAVOK 09/07 Q1020
cycle: 1
Augsburg, Germany (EDMA) 48-26N 010-56E 463M
Oct 31, 2020 - 08:50 PM EDT / 2020.11.01 0050 UTC
Wind: from the ESE (110 degrees) at 2 MPH (2 KT):0
Visibility: 2 mile(s):0
Sky conditions: mostly cloudy
Temperature: 39 F (4 C)
Dew Point: 37 F (3 C)
Relative Humidity: 93%
Pressure (altimeter): 30.15 in. Hg (1021 hPa)
ob: EDMA 010050Z AUTO 11002KT 3500 // FEW003/// BKN150/// 04/03 Q1021
cycle: 1
Nuernberg, Germany (EDDN) 49-30N 011-03E 318M
Oct 31, 2020 - 08:50 PM EDT / 2020.11.01 0050 UTC
Wind: from the ESE (110 degrees) at 7 MPH (6 KT):0
Visibility: greater than 7 mile(s):0
Temperature: 46 F (8 C)
Dew Point: 44 F (7 C)
Relative Humidity: 93%
Pressure (altimeter): 30.12 in. Hg (1020 hPa)
ob: EDDN 010050Z 11006KT CAVOK 08/07 Q1020
cycle: 1
Berlin-Tegel, Germany (EDDT) 52-34N 013-19E 37M
Oct 31, 2020 - 08:50 PM EDT / 2020.11.01 0050 UTC
Wind: from the S (170 degrees) at 9 MPH (8 KT):0
Visibility: greater than 7 mile(s):0
Temperature: 53 F (12 C)
Dew Point: 50 F (10 C)
Relative Humidity: 87%
Pressure (altimeter): 30.00 in. Hg (1016 hPa)
ob: EDDT 010050Z 17008KT CAVOK 12/10 Q1016
cycle: 1
Friedrichshafen, Germany (EDNY) 47-40N 009-31E 424M
Oct 31, 2020 - 08:50 PM EDT / 2020.11.01 0050 UTC
Wind: from the E (080 degrees) at 3 MPH (3 KT):0
Visibility: less than 1 mile:0
Sky conditions: obscured
Temperature: 44 F (7 C)
Dew Point: 44 F (7 C)
Relative Humidity: 100%
Pressure (altimeter): 30.21 in. Hg (1023 hPa)
ob: EDNY 010050Z AUTO 08003KT 0650 0600 R24/0750N // VV/// 07/07 Q1023
cycle: 1
Hamburg-Finkenwerder, Germany (EDHI) 53-32N 009-50E 13M
Oct 31, 2020 - 08:50 PM EDT / 2020.11.01 0050 UTC
Wind: from the SSW (210 degrees) at 9 MPH (8 KT):0
Visibility: 5 mile(s):0
Sky conditions: overcast
Temperature: 53 F (12 C)
Dew Point: 51 F (11 C)
Relative Humidity: 93%
Pressure (altimeter): 29.88 in. Hg (1012 hPa)
ob: EDHI 010050Z AUTO 21008KT 9000 // FEW012/// SCT017/// OVC051/// 12/11 Q1012
cycle: 1
Amsterdam Airport Schiphol, Netherlands (EHAM) 52-18N 004-46E -2M
Oct 31, 2020 - 08:55 PM EDT / 2020.11.01 0055 UTC
Wind: from the SSW (200 degrees) at 9 MPH (8 KT):0
Visibility: greater than 7 mile(s):0
Temperature: 50 F (10 C)
Dew Point: 48 F (9 C)
Relative Humidity: 93%
Pressure (altimeter): 29.88 in. Hg (1012 hPa)
ob: EHAM 010055Z 20008KT CAVOK 10/09 Q1012 NOSIG
cycle: 1
Stockholm/Skavsta, Sweden (ESKN) 58-47N 016-55E
Oct 31, 2020 - 08:50 PM EDT / 2020.11.01 0050 UTC
Wind: from the SSE (150 degrees) at 12 MPH (10 KT):0
Visibility: greater than 7 mile(s):0
Sky conditions: mostly cloudy
Temperature: 50 F (10 C)
Dew Point: 48 F (9 C)
Relative Humidity: 93%
Pressure (altimeter): 30.03 in. Hg (1017 hPa)
ob: ESKN 010050Z 15010KT 9999 BKN009 10/09 Q1017
cycle: 1
Ramstein, Germany (ETAR) 49-26N 007-36E 237M
Oct 31, 2020 - 08:56 PM EDT / 2020.11.01 0056 UTC
Wind: from the WSW (240 degrees) at 7 MPH (6 KT):0
Visibility: greater than 7 mile(s):0
Sky conditions: overcast
Temperature: 56.5 F (13.6 C)
Dew Point: 54.5 F (12.5 C)
Relative Humidity: 93%
Pressure (altimeter): 30.07 in. Hg (1018 hPa)
ob: ETAR 010056Z AUTO 24006KT 9999 OVC028 14/13 A3007 RMK AO2 SLP183 T01360125 FZRANO 
cycle: 1
Laupheim, Germany (ETHL) 48-13N 009-55E 550M
Oct 31, 2020 - 08:20 PM EDT / 2020.11.01 0020 UTC
Wind: from the W (260 degrees) at 7 MPH (6 KT):0
Visibility: 1 mile(s):0
Temperature: 42 F (6 C)
Dew Point: 41 F (5 C)
Relative Humidity: 93%
Pressure (altimeter): 30.15 in. Hg (1021 hPa)
ob: ETHL 010020Z AUTO 26006KT 2700 // ////// 06/05 Q1021 ///
cycle: 0
Gran Canaria - Canary Islands, Spain (GCLP) 27-56N 015-23W 47M
Oct 31, 2020 - 09:00 PM EDT / 2020.11.01 0100 UTC
Wind: from the N (010 degrees) at 12 MPH (10 KT):0
Visibility: greater than 7 mile(s):0
Temperature: 78 F (26 C)
Dew Point: 39 F (4 C)
Relative Humidity: 24%
Pressure (altimeter): 30.18 in. Hg (1022 hPa)
ob: GCLP 010100Z 01010KT CAVOK 26/04 Q1022 NOSIG
cycle: 1
Hurguada, Egypt (HEGN) 27-09N 033-43E 14M
Oct 31, 2020 - 08:00 PM EDT / 2020.11.01 0000 UTC
Wind: from the W (280 degrees) at 3 MPH (3 KT):0
Visibility: greater than 7 mile(s):0
Temperature: 75 F (24 C)
Dew Point: 64 F (18 C)
Relative Humidity: 69%
Pressure (altimeter): 29.85 in. Hg (1011 hPa)
ob: HEGN 010000Z 28003KT CAVOK 24/18 Q1011 NOSIG
cycle: 0
Chicago / Meigs, IL, United States (KCGX) 41-52N 087-36W
Jun 18, 2008 - 01:45 PM EDT / 2008.06.18 1745 UTC
Wind: from the NW (310 degrees) at 6 MPH (5 KT):0
Visibility: 15 mile(s):0
Sky conditions: overcast
Temperature: 57 F (14 C)
Dew Point: 51 F (11 C)
Relative Humidity: 82%
Pressure (altimeter): 29.89 in. Hg (1012 hPa)
ob: KCGX 181745Z 31005KT 15SM BKN014 OVC030 14/11 A2989
cycle: 18
Paris-Aeroport Charles De Gaulle, France (LFPG) 49-01N 002-32E 109M
Oct 31, 2020 - 09:00 PM EDT / 2020.11.01 0100 UTC
Wind: from the SW (230 degrees) at 13 MPH (11 KT):0
Visibility: greater than 7 mile(s):0
Sky conditions: mostly cloudy
Temperature: 57 F (14 C)
Dew Point: 50 F (10 C)
Relative Humidity: 76%
Pressure (altimeter): 30.03 in. Hg (1017 hPa)
ob: LFPG 010100Z 23011KT 9999 FEW030 BKN130 14/10 Q1017 NOSIG
cycle: 1
Hyeres, France (LFTH) 43-06N 006-09E 4M
Oct 31, 2020 - 09:00 PM EDT / 2020.11.01 0100 UTC
Wind: Variable at 1 MPH (1 KT):0
Visibility: 2 mile(s):0
Sky conditions: partly cloudy
Weather: mist
Temperature: 53 F (12 C)
Dew Point: 51 F (11 C)
Relative Humidity: 93%
Pressure (altimeter): 30.21 in. Hg (1023 hPa)
ob: LFTH 010100Z AUTO VRB01KT 4500 BR SCT001 SCT023 12/11 Q1023 TEMPO 0600 FG BKN005
cycle: 1



Die Wetterdaten werden alle 2 Minuten gespeichert, aber die Datenübertragung findet jede Minute statt. Die beste Ansicht wird in einer Auflösung von 800 x 600 und "True colour" erzielt. Linie zeigt die relative Luftfeuchtigkeit an.

Drücken Sie bitte auf "Aktualisieren" in Ihrem Browser, um die aktuellsten Daten zu erhalten.

Klicken Sie hier, um eine Übersicht der Durchschnitts- u. Extremwerte für den Monat zu erhalten
Created by "Weather Display" software version 10.37S at this start time/date 09:43:25 31.10.2020